createdAt,value
2018-05-24T00:01:20.392Z,15.40
2018-05-24T00:03:48.903Z,15.30
2018-05-24T00:06:17.451Z,15.30
2018-05-24T00:08:46.150Z,15.30
2018-05-24T00:11:14.586Z,15.30
2018-05-24T00:13:43.503Z,15.30
2018-05-24T00:16:12.739Z,15.20
2018-05-24T00:18:42.210Z,15.20
2018-05-24T00:21:11.410Z,15.20
2018-05-24T00:23:40.143Z,15.20
2018-05-24T00:26:08.749Z,15.20
2018-05-24T00:28:37.385Z,15.20
2018-05-24T00:31:05.852Z,15.20
2018-05-24T00:33:34.320Z,15.10
2018-05-24T00:36:02.912Z,15.10
2018-05-24T00:38:31.330Z,15.10
2018-05-24T00:41:00.040Z,15.00
2018-05-24T00:43:28.756Z,15.00
2018-05-24T00:45:56.958Z,15.00
2018-05-24T00:48:25.738Z,14.90
2018-05-24T00:50:55.211Z,14.90
2018-05-24T00:53:24.453Z,14.90
2018-05-24T00:55:53.135Z,14.90
2018-05-24T00:58:21.843Z,14.90
2018-05-24T01:00:50.303Z,14.90
2018-05-24T01:03:19.013Z,14.90
2018-05-24T01:05:47.444Z,14.90
2018-05-24T01:08:16.183Z,14.80
2018-05-24T01:10:44.613Z,14.80
2018-05-24T01:13:13.049Z,14.80
2018-05-24T01:15:42.147Z,14.80
2018-05-24T01:18:11.260Z,14.80
2018-05-24T01:20:39.851Z,14.80
2018-05-24T01:23:08.569Z,14.80
2018-05-24T01:25:37.025Z,14.70
2018-05-24T01:28:05.461Z,14.70
2018-05-24T01:30:34.221Z,14.70
2018-05-24T01:33:02.654Z,14.60
2018-05-24T01:35:31.365Z,14.60
2018-05-24T01:37:59.927Z,14.50
2018-05-24T01:40:28.414Z,14.50
2018-05-24T01:42:57.117Z,14.50
2018-05-24T01:45:25.577Z,14.50
2018-05-24T01:47:54.285Z,14.40
2018-05-24T01:50:23.745Z,14.50
2018-05-24T01:52:53.289Z,14.50
2018-05-24T01:55:22.769Z,14.50
2018-05-24T01:57:51.971Z,14.50
2018-05-24T02:00:20.453Z,14.50
2018-05-24T02:02:49.845Z,14.50
2018-05-24T02:05:18.505Z,14.50
2018-05-24T02:07:47.228Z,14.50
2018-05-24T02:10:16.706Z,14.50
2018-05-24T02:12:45.415Z,14.50
2018-05-24T02:15:13.884Z,14.50
2018-05-24T02:17:42.345Z,14.60
2018-05-24T02:20:10.913Z,14.60
2018-05-24T02:22:39.649Z,14.70
2018-05-24T02:25:09.138Z,14.70
2018-05-24T02:27:37.849Z,14.60
2018-05-24T02:30:06.629Z,14.60
2018-05-24T02:32:36.112Z,14.60
2018-05-24T02:35:04.294Z,14.60
2018-05-24T02:37:33.321Z,14.60
2018-05-24T02:40:02.683Z,14.60
2018-05-24T02:42:31.180Z,14.60
2018-05-24T02:44:59.521Z,14.60
2018-05-24T02:47:28.107Z,14.60
2018-05-24T02:49:56.795Z,14.50
2018-05-24T02:52:25.617Z,14.50
2018-05-24T02:54:54.065Z,14.50
2018-05-24T02:57:23.272Z,14.50
2018-05-24T02:59:52.035Z,14.50
2018-05-24T03:02:20.461Z,14.50
2018-05-24T03:04:49.937Z,14.50
2018-05-24T03:07:19.165Z,14.50
2018-05-24T03:09:47.789Z,14.50
2018-05-24T03:12:16.237Z,14.50
2018-05-24T03:14:44.705Z,14.50
2018-05-24T03:17:14.240Z,14.50
2018-05-24T03:19:42.669Z,14.50
2018-05-24T03:22:11.124Z,14.50
2018-05-24T03:24:39.824Z,14.50
2018-05-24T03:27:09.236Z,14.60
2018-05-24T03:29:38.009Z,14.50
2018-05-24T03:32:07.207Z,14.60
2018-05-24T03:34:35.789Z,14.50
2018-05-24T03:37:05.008Z,14.60
2018-05-24T03:39:33.437Z,14.50
2018-05-24T03:42:01.874Z,14.60
2018-05-24T03:44:30.324Z,14.60
2018-05-24T03:46:59.526Z,14.60
2018-05-24T03:49:28.511Z,14.60
2018-05-24T03:51:57.236Z,14.60
2018-05-24T03:54:25.751Z,14.60
2018-05-24T03:56:54.456Z,14.70
2018-05-24T04:02:47.673Z,14.70
2018-05-24T04:05:15.795Z,14.70
2018-05-24T04:07:44.220Z,14.70
2018-05-24T04:10:13.688Z,14.70
2018-05-24T04:12:42.547Z,14.70
2018-05-24T04:15:11.043Z,14.70
2018-05-24T04:17:40.364Z,14.80
2018-05-24T04:20:09.609Z,14.70
2018-05-24T04:22:38.038Z,14.70
2018-05-24T04:25:06.659Z,14.80
2018-05-24T04:27:35.373Z,14.80
2018-05-24T04:30:03.339Z,14.80
2018-05-24T04:32:31.895Z,14.80
2018-05-24T04:35:01.617Z,14.80
2018-05-24T04:37:30.065Z,14.80
2018-05-24T04:39:58.764Z,14.90
2018-05-24T04:42:27.241Z,15.00
2018-05-24T04:44:55.675Z,15.00
2018-05-24T04:47:24.151Z,15.00
2018-05-24T04:49:52.601Z,15.10
2018-05-24T04:52:22.061Z,15.20
2018-05-24T04:54:51.261Z,15.30
2018-05-24T04:57:20.578Z,15.40
2018-05-24T04:59:49.213Z,15.40
2018-05-24T05:02:17.688Z,15.40
2018-05-24T05:04:46.149Z,15.50
2018-05-24T05:07:14.579Z,15.50
2018-05-24T05:09:43.772Z,15.50
2018-05-24T05:12:12.461Z,15.50
2018-05-24T05:14:41.740Z,15.70
2018-05-24T05:17:10.574Z,15.70
2018-05-24T05:19:39.092Z,15.80
2018-05-24T05:22:08.428Z,15.90
2018-05-24T05:24:37.133Z,15.90
2018-05-24T05:27:05.361Z,15.90
2018-05-24T05:29:33.797Z,16.10
2018-05-24T05:32:02.347Z,16.10
2018-05-24T05:34:31.172Z,16.20
2018-05-24T05:36:59.922Z,16.20
2018-05-24T05:39:29.116Z,16.20
2018-05-24T05:41:57.857Z,16.20
2018-05-24T05:44:26.568Z,16.20
2018-05-24T05:46:55.260Z,16.10
2018-05-24T05:49:23.731Z,16.10
2018-05-24T05:51:53.379Z,16.00
2018-05-24T05:54:22.076Z,16.00
2018-05-24T05:56:50.521Z,16.00
2018-05-24T05:59:18.961Z,16.10
2018-05-24T06:01:47.475Z,16.10
2018-05-24T06:04:15.940Z,16.10
2018-05-24T06:06:45.164Z,16.10
2018-05-24T06:09:14.356Z,16.10
2018-05-24T06:11:43.068Z,16.10
2018-05-24T06:14:11.820Z,16.10
2018-05-24T06:16:40.780Z,16.10
2018-05-24T06:19:09.260Z,16.10
2018-05-24T06:21:38.111Z,16.10
2018-05-24T06:24:06.904Z,16.10
2018-05-24T06:26:36.389Z,16.20
2018-05-24T06:29:05.585Z,16.20
2018-05-24T06:31:34.476Z,16.20
2018-05-24T06:34:03.712Z,16.20
2018-05-24T06:36:33.176Z,16.20
2018-05-24T06:39:02.140Z,16.20
2018-05-24T06:41:30.596Z,16.20
2018-05-24T06:43:59.088Z,16.30
2018-05-24T06:46:28.380Z,16.20
2018-05-24T06:48:57.154Z,16.20
2018-05-24T06:51:25.585Z,16.20
2018-05-24T06:53:54.378Z,16.30
2018-05-24T06:56:23.603Z,16.30
2018-05-24T06:58:52.889Z,16.30
2018-05-24T07:01:21.347Z,16.30
2018-05-24T07:03:50.572Z,16.30
2018-05-24T07:06:19.211Z,16.30
2018-05-24T07:08:47.649Z,16.30
2018-05-24T07:11:16.525Z,16.30
2018-05-24T07:13:46.014Z,16.10
2018-05-24T07:16:15.216Z,16.10
2018-05-24T07:18:43.947Z,16.10
2018-05-24T07:21:12.381Z,16.00
2018-05-24T07:23:41.047Z,16.00
2018-05-24T07:26:10.268Z,15.90
2018-05-24T07:28:38.914Z,15.90
2018-05-24T07:31:07.454Z,15.90
2018-05-24T07:33:35.999Z,15.80
2018-05-24T07:36:05.200Z,16.00
2018-05-24T07:38:34.400Z,15.90
2018-05-24T07:41:03.623Z,16.00
2018-05-24T07:43:33.102Z,16.00
2018-05-24T07:46:01.826Z,16.00
2018-05-24T07:48:30.598Z,16.00
2018-05-24T07:50:59.224Z,16.10
2018-05-24T07:53:27.940Z,16.10
2018-05-24T07:55:56.680Z,16.10
2018-05-24T07:58:25.120Z,16.10
2018-05-24T08:00:53.821Z,16.10
2018-05-24T08:03:23.417Z,16.00
2018-05-24T08:05:52.904Z,16.00
2018-05-24T08:08:21.624Z,16.00
2018-05-24T08:10:50.199Z,16.00
2018-05-24T08:13:18.868Z,16.10
2018-05-24T08:15:47.440Z,16.20
2018-05-24T08:18:16.211Z,16.30
2018-05-24T08:20:44.915Z,16.40
2018-05-24T08:23:13.483Z,16.40
2018-05-24T08:25:42.016Z,16.40
2018-05-24T08:28:10.729Z,16.60
2018-05-24T08:30:39.160Z,16.70
2018-05-24T08:33:07.901Z,16.70
2018-05-24T08:35:36.340Z,16.60
2018-05-24T08:38:04.854Z,16.70
2018-05-24T08:40:33.380Z,16.90
2018-05-24T08:43:02.164Z,16.90
2018-05-24T08:45:30.667Z,16.90
2018-05-24T08:47:59.352Z,16.90
2018-05-24T08:50:27.972Z,16.80
2018-05-24T08:52:56.414Z,16.60
2018-05-24T08:55:25.200Z,16.70
2018-05-24T08:57:53.628Z,16.70
2018-05-24T09:00:23.140Z,16.90
2018-05-24T09:02:51.732Z,16.90
2018-05-24T09:05:20.168Z,17.00
2018-05-24T09:07:48.784Z,17.00
2018-05-24T09:10:18.017Z,17.20
2018-05-24T09:12:47.504Z,17.20
2018-05-24T09:15:16.808Z,17.20
2018-05-24T09:17:45.266Z,17.20
2018-05-24T09:20:13.787Z,17.10
2018-05-24T09:22:42.405Z,17.10
2018-05-24T09:25:11.887Z,17.00
2018-05-24T09:27:40.343Z,17.00
2018-05-24T09:30:08.772Z,17.00
2018-05-24T09:32:37.235Z,16.90
2018-05-24T09:35:05.951Z,16.80
2018-05-24T09:37:34.387Z,16.90
2018-05-24T09:40:03.158Z,16.90
2018-05-24T09:42:31.591Z,17.10
2018-05-24T09:45:00.289Z,17.20
2018-05-24T09:47:28.807Z,17.30
2018-05-24T09:49:57.289Z,17.50
2018-05-24T09:52:25.729Z,17.60
2018-05-24T09:54:54.957Z,18.00
2018-05-24T09:57:23.423Z,17.90
2018-05-24T09:59:52.005Z,18.20
2018-05-24T10:02:20.669Z,18.30
2018-05-24T10:04:49.875Z,18.70
2018-05-24T10:07:19.069Z,18.90
2018-05-24T10:09:48.458Z,19.00
2018-05-24T10:12:18.077Z,19.00
2018-05-24T10:14:47.286Z,18.90
2018-05-24T10:17:16.017Z,18.90
2018-05-24T10:19:44.469Z,19.00
2018-05-24T10:22:13.196Z,19.00
2018-05-24T10:24:41.600Z,19.00
2018-05-24T10:27:10.128Z,19.10
2018-05-24T10:29:38.569Z,19.00
2018-05-24T10:32:06.972Z,18.90
2018-05-24T10:34:36.450Z,18.70
2018-05-24T10:37:04.499Z,18.70
2018-05-24T10:39:33.290Z,18.90
2018-05-24T10:42:02.190Z,19.10
2018-05-24T10:44:31.396Z,19.30
2018-05-24T10:47:00.922Z,19.60
2018-05-24T10:49:30.396Z,20.20
2018-05-24T10:51:59.601Z,20.40
2018-05-24T10:54:28.877Z,20.60
2018-05-24T10:56:57.317Z,20.60
2018-05-24T10:59:25.748Z,20.90
2018-05-24T11:01:54.340Z,21.00
2018-05-24T11:04:23.539Z,21.40
2018-05-24T11:06:52.408Z,21.40
2018-05-24T11:09:21.155Z,21.70
2018-05-24T11:11:49.901Z,22.00
2018-05-24T11:14:19.148Z,22.30
2018-05-24T11:16:47.432Z,22.30
2018-05-24T11:19:15.803Z,22.40
2018-05-24T11:21:44.508Z,22.20
2018-05-24T11:24:13.252Z,22.30
2018-05-24T11:26:41.710Z,22.70
2018-05-24T11:29:11.217Z,22.80
2018-05-24T11:31:39.717Z,22.70
2018-05-24T11:34:08.604Z,23.40
2018-05-24T11:36:37.056Z,23.40
2018-05-24T11:39:05.721Z,23.20
2018-05-24T11:41:34.152Z,23.20
2018-05-24T11:44:02.997Z,23.90
2018-05-24T11:46:31.651Z,25.20
2018-05-24T11:49:00.173Z,26.50
2018-05-24T11:51:28.765Z,27.10
2018-05-24T11:53:57.224Z,27.50
2018-05-24T11:56:25.945Z,27.30
2018-05-24T11:58:55.439Z,28.20
2018-05-24T12:01:23.902Z,28.20
2018-05-24T12:03:53.109Z,29.00
2018-05-24T12:06:21.545Z,29.00
2018-05-24T12:08:50.000Z,28.30
2018-05-24T12:11:18.924Z,26.60
2018-05-24T12:13:47.372Z,25.30
2018-05-24T12:16:15.825Z,24.90
2018-05-24T12:18:44.256Z,24.60
2018-05-24T12:21:12.692Z,24.50
2018-05-24T12:23:41.258Z,24.50
2018-05-24T12:26:10.689Z,24.40
2018-05-24T12:28:39.124Z,24.30
2018-05-24T12:31:07.956Z,24.30
2018-05-24T12:33:36.396Z,24.40
2018-05-24T12:36:05.592Z,23.70
2018-05-24T12:38:34.128Z,23.70
2018-05-24T12:41:02.648Z,23.70
2018-05-24T12:43:31.326Z,23.40
2018-05-24T12:45:59.961Z,23.50
2018-05-24T12:48:28.400Z,24.40
2018-05-24T12:50:57.612Z,25.30
2018-05-24T12:53:26.347Z,25.20
2018-05-24T12:55:55.088Z,24.90
2018-05-24T12:58:23.970Z,24.20
2018-05-24T13:00:52.442Z,24.10
2018-05-24T13:03:21.647Z,27.40
2018-05-24T13:05:50.147Z,27.30
2018-05-24T13:08:19.663Z,29.20
2018-05-24T13:10:48.102Z,29.20
2018-05-24T13:13:17.312Z,28.00
2018-05-24T13:15:45.769Z,28.00
2018-05-24T13:18:15.788Z,28.20
2018-05-24T13:20:44.991Z,28.00
2018-05-24T13:23:13.721Z,27.90
2018-05-24T13:25:42.431Z,27.50
2018-05-24T13:28:10.994Z,26.90
2018-05-24T13:30:39.765Z,26.20
2018-05-24T13:33:09.236Z,25.20
2018-05-24T13:35:37.950Z,25.20
2018-05-24T13:38:06.404Z,24.70
2018-05-24T13:40:35.210Z,25.10
2018-05-24T13:43:03.755Z,25.50
2018-05-24T13:45:32.216Z,25.40
2018-05-24T13:48:00.696Z,25.50
2018-05-24T13:50:29.941Z,26.00
2018-05-24T13:52:58.399Z,27.30
2018-05-24T13:55:27.007Z,28.70
2018-05-24T13:57:55.435Z,29.80
2018-05-24T14:00:23.892Z,30.40
2018-05-24T14:02:52.754Z,30.20
2018-05-24T14:05:22.147Z,31.00
2018-05-24T14:07:50.901Z,31.00
2018-05-24T14:10:19.055Z,31.10
2018-05-24T14:12:47.617Z,30.00
2018-05-24T14:15:16.070Z,29.00
2018-05-24T14:17:45.264Z,28.40
2018-05-24T14:20:14.560Z,28.70
2018-05-24T14:22:43.783Z,28.50
2018-05-24T14:25:12.216Z,28.40
2018-05-24T14:27:40.937Z,27.40
2018-05-24T14:30:09.552Z,26.10
2018-05-24T14:32:37.978Z,25.40
2018-05-24T14:35:07.193Z,24.80
2018-05-24T14:37:36.520Z,24.60
2018-05-24T14:40:05.783Z,24.60
2018-05-24T14:42:34.979Z,24.80
2018-05-24T14:45:03.678Z,24.50
2018-05-24T14:47:32.303Z,24.50
2018-05-24T14:50:00.903Z,24.20
2018-05-24T14:52:29.665Z,23.90
2018-05-24T14:54:58.112Z,23.80
2018-05-24T14:57:26.600Z,23.70
2018-05-24T14:59:55.492Z,23.70
2018-05-24T15:02:23.932Z,23.30
2018-05-24T15:04:52.368Z,23.10
2018-05-24T15:07:20.842Z,22.90
2018-05-24T15:09:49.464Z,22.90
2018-05-24T15:12:18.048Z,22.80
2018-05-24T15:14:47.192Z,22.70
2018-05-24T15:17:16.265Z,22.60
2018-05-24T15:19:45.770Z,22.60
2018-05-24T15:22:14.238Z,22.60
2018-05-24T15:24:43.447Z,22.90
2018-05-24T15:27:11.887Z,22.80
2018-05-24T15:29:40.360Z,22.90
2018-05-24T15:32:09.026Z,23.20
2018-05-24T15:34:37.464Z,23.20
2018-05-24T15:37:06.009Z,23.40
2018-05-24T15:39:34.444Z,23.50
2018-05-24T15:42:02.893Z,23.70
2018-05-24T15:44:31.626Z,23.50
2018-05-24T15:47:01.327Z,23.20
2018-05-24T15:49:30.166Z,23.10
2018-05-24T15:51:59.400Z,23.00
2018-05-24T15:54:28.018Z,22.90
2018-05-24T15:56:57.363Z,23.50
2018-05-24T15:59:26.598Z,23.60
2018-05-24T16:01:55.087Z,23.60
2018-05-24T16:04:23.815Z,23.90
2018-05-24T16:06:52.279Z,23.80
2018-05-24T16:09:20.745Z,23.60
2018-05-24T16:11:49.477Z,23.50
2018-05-24T16:14:18.805Z,23.20
2018-05-24T16:16:47.240Z,23.20
2018-05-24T16:19:15.950Z,23.00
2018-05-24T16:21:44.478Z,22.90
2018-05-24T16:24:13.173Z,22.90
2018-05-24T16:26:42.409Z,23.00
2018-05-24T16:29:11.146Z,22.90
